sensor_id;sensor_type;location;lat;lon;timestamp;pressure;altitude;pressure_sealevel;temperature;humidity
43161;BME280;40968;52.342;5.528;2023-02-12T00:02:17;103846.91;;;7.55;75.15
43161;BME280;40968;52.342;5.528;2023-02-12T00:04:47;103805.41;;;7.30;74.54
43161;BME280;40968;52.342;5.528;2023-02-12T00:07:13;103777.25;;;7.05;74.82
43161;BME280;40968;52.342;5.528;2023-02-12T00:09:40;103851.50;;;7.43;75.08
43161;BME280;40968;52.342;5.528;2023-02-12T00:12:07;103850.63;;;7.43;75.05
43161;BME280;40968;52.342;5.528;2023-02-12T00:14:35;103804.75;;;7.10;74.95
43161;BME280;40968;52.342;5.528;2023-02-12T00:17:02;103820.75;;;7.13;74.86
43161;BME280;40968;52.342;5.528;2023-02-12T00:19:29;103797.00;;;6.90;74.73
43161;BME280;40968;52.342;5.528;2023-02-12T00:21:57;103815.53;;;7.04;75.33
43161;BME280;40968;52.342;5.528;2023-02-12T00:24:24;103817.31;;;7.02;75.60
43161;BME280;40968;52.342;5.528;2023-02-12T00:26:51;103832.34;;;7.07;75.53
43161;BME280;40968;52.342;5.528;2023-02-12T00:29:17;103817.38;;;6.99;75.64
43161;BME280;40968;52.342;5.528;2023-02-12T00:31:44;103821.78;;;6.98;75.71
43161;BME280;40968;52.342;5.528;2023-02-12T00:34:11;103852.75;;;7.13;75.54
43161;BME280;40968;52.342;5.528;2023-02-12T00:36:37;103841.28;;;7.05;75.83
43161;BME280;40968;52.342;5.528;2023-02-12T00:39:05;103816.59;;;6.87;76.01
43161;BME280;40968;52.342;5.528;2023-02-12T00:41:32;103849.28;;;7.06;76.07
43161;BME280;40968;52.342;5.528;2023-02-12T00:43:58;103811.34;;;6.83;76.25
43161;BME280;40968;52.342;5.528;2023-02-12T00:46:25;103856.44;;;7.03;76.19
43161;BME280;40968;52.342;5.528;2023-02-12T00:48:51;103757.56;;;6.39;76.00
43161;BME280;40968;52.342;5.528;2023-02-12T00:51:18;103860.09;;;6.92;75.79
43161;BME280;40968;52.342;5.528;2023-02-12T00:53:45;103857.50;;;6.88;75.90
43161;BME280;40968;52.342;5.528;2023-02-12T00:56:13;103860.19;;;6.83;75.88
43161;BME280;40968;52.342;5.528;2023-02-12T00:58:39;103862.00;;;6.78;75.97
43161;BME280;40968;52.342;5.528;2023-02-12T01:01:06;103864.69;;;6.76;75.81
43161;BME280;40968;52.342;5.528;2023-02-12T01:03:32;103801.09;;;6.39;75.71
43161;BME280;40968;52.342;5.528;2023-02-12T01:05:59;103865.66;;;6.68;75.79
43161;BME280;40968;52.342;5.528;2023-02-12T01:08:26;103835.63;;;6.50;75.89
43161;BME280;40968;52.342;5.528;2023-02-12T01:10:56;103864.81;;;6.62;75.48
43161;BME280;40968;52.342;5.528;2023-02-12T01:13:25;103796.88;;;6.10;75.11
43161;BME280;40968;52.342;5.528;2023-02-12T01:16:01;103870.28;;;6.50;75.10
43161;BME280;40968;52.342;5.528;2023-02-12T01:18:28;103864.09;;;6.45;75.11
43161;BME280;40968;52.342;5.528;2023-02-12T01:20:54;103796.97;;;6.03;74.87
43161;BME280;40968;52.342;5.528;2023-02-12T01:23:23;103776.66;;;5.81;74.73
43161;BME280;40968;52.342;5.528;2023-02-12T01:25:50;103804.09;;;5.94;75.14
43161;BME280;40968;52.342;5.528;2023-02-12T01:28:16;103763.47;;;5.64;75.26
43161;BME280;40968;52.342;5.528;2023-02-12T01:30:44;103798.81;;;5.85;74.89
43161;BME280;40968;52.342;5.528;2023-02-12T01:33:11;103853.63;;;6.20;75.16
43161;BME280;40968;52.342;5.528;2023-02-12T01:35:38;103804.16;;;5.85;75.36
43161;BME280;40968;52.342;5.528;2023-02-12T01:38:04;103762.66;;;5.56;75.47
43161;BME280;40968;52.342;5.528;2023-02-12T01:40:31;103862.56;;;6.16;75.41
43161;BME280;40968;52.342;5.528;2023-02-12T01:43:00;103871.47;;;6.09;74.87
43161;BME280;40968;52.342;5.528;2023-02-12T01:45:50;103785.75;;;5.54;75.32
43161;BME280;40968;52.342;5.528;2023-02-12T01:48:20;103867.03;;;6.06;75.73
43161;BME280;40968;52.342;5.528;2023-02-12T01:50:49;103812.25;;;5.67;75.03
43161;BME280;40968;52.342;5.528;2023-02-12T01:53:18;103879.53;;;5.95;75.23
43161;BME280;40968;52.342;5.528;2023-02-12T01:55:48;103876.00;;;5.91;75.03
43161;BME280;40968;52.342;5.528;2023-02-12T01:58:15;103876.00;;;5.87;74.90
43161;BME280;40968;52.342;5.528;2023-02-12T02:00:42;103837.97;;;5.64;74.42
43161;BME280;40968;52.342;5.528;2023-02-12T02:03:10;103868.09;;;5.76;74.54
43161;BME280;40968;52.342;5.528;2023-02-12T02:05:42;103672.72;;;4.65;75.29
43161;BME280;40968;52.342;5.528;2023-02-12T02:08:09;103689.50;;;4.81;74.87
43161;BME280;40968;52.342;5.528;2023-02-12T02:10:36;103863.66;;;5.73;75.61
43161;BME280;40968;52.342;5.528;2023-02-12T02:13:03;103693.97;;;4.71;75.25
43161;BME280;40968;52.342;5.528;2023-02-12T02:15:50;103864.59;;;5.68;75.30
43161;BME280;40968;52.342;5.528;2023-02-12T02:18:23;103864.59;;;5.64;75.33
43161;BME280;40968;52.342;5.528;2023-02-12T02:21:13;103855.75;;;5.62;75.26
43161;BME280;40968;52.342;5.528;2023-02-12T02:24:32;103860.19;;;5.60;75.68
43161;BME280;40968;52.342;5.528;2023-02-12T02:27:14;103720.53;;;4.76;75.09
43161;BME280;40968;52.342;5.528;2023-02-12T02:30:12;103848.72;;;5.44;75.06
43161;BME280;40968;52.342;5.528;2023-02-12T02:32:42;103856.69;;;5.51;75.25
43161;BME280;40968;52.342;5.528;2023-02-12T02:35:16;103858.47;;;5.47;74.98
43161;BME280;40968;52.342;5.528;2023-02-12T02:37:48;103663.09;;;4.35;74.77
43161;BME280;40968;52.342;5.528;2023-02-12T02:42:49;103849.66;;;5.39;74.80
43161;BME280;40968;52.342;5.528;2023-02-12T02:45:25;103842.56;;;5.33;74.45
43161;BME280;40968;52.342;5.528;2023-02-12T02:47:57;103814.31;;;5.10;74.45
43161;BME280;40968;52.342;5.528;2023-02-12T02:50:27;103798.38;;;4.96;74.90
43161;BME280;40968;52.342;5.528;2023-02-12T02:53:00;103786.94;;;4.85;74.77
43161;BME280;40968;52.342;5.528;2023-02-12T02:55:31;103819.66;;;5.00;75.00
43161;BME280;40968;52.342;5.528;2023-02-12T02:58:04;103764.81;;;4.77;75.61
43161;BME280;40968;52.342;5.528;2023-02-12T03:00:36;103778.94;;;4.88;75.81
43161;BME280;40968;52.342;5.528;2023-02-12T03:03:10;103794.00;;;4.89;75.28
43161;BME280;40968;52.342;5.528;2023-02-12T03:05:43;103781.63;;;4.79;74.75
43161;BME280;40968;52.342;5.528;2023-02-12T03:08:16;103839.13;;;5.06;75.01
43161;BME280;40968;52.342;5.528;2023-02-12T03:10:52;103830.25;;;5.04;75.80
43161;BME280;40968;52.342;5.528;2023-02-12T03:13:24;103795.81;;;4.79;75.12
43161;BME280;40968;52.342;5.528;2023-02-12T03:15:57;103765.75;;;4.57;74.92
43161;BME280;40968;52.342;5.528;2023-02-12T03:18:27;103831.19;;;4.95;75.70
43161;BME280;40968;52.342;5.528;2023-02-12T03:21:04;103829.44;;;4.93;75.60
43161;BME280;40968;52.342;5.528;2023-02-12T03:23:38;103834.75;;;4.88;75.20
43161;BME280;40968;52.342;5.528;2023-02-12T03:26:09;103711.81;;;4.12;75.11
43161;BME280;40968;52.342;5.528;2023-02-12T03:28:37;103782.56;;;4.50;75.39
43161;BME280;40968;52.342;5.528;2023-02-12T03:31:10;103834.75;;;4.82;75.39
43161;BME280;40968;52.342;5.528;2023-02-12T03:33:45;103831.22;;;4.83;75.83
43161;BME280;40968;52.342;5.528;2023-02-12T03:36:28;103679.97;;;3.90;75.32
43161;BME280;40968;52.342;5.528;2023-02-12T03:39:03;103843.63;;;4.78;75.18
43161;BME280;40968;52.342;5.528;2023-02-12T03:41:40;103840.97;;;4.76;75.27
43161;BME280;40968;52.342;5.528;2023-02-12T03:44:12;103787.03;;;4.42;75.30
43161;BME280;40968;52.342;5.528;2023-02-12T03:46:44;103755.19;;;4.23;75.80
43161;BME280;40968;52.342;5.528;2023-02-12T03:49:20;103815.31;;;4.58;76.23
43161;BME280;40968;52.342;5.528;2023-02-12T03:51:49;103784.34;;;4.39;75.87
43161;BME280;40968;52.342;5.528;2023-02-12T03:54:17;103811.78;;;4.53;76.46
43161;BME280;40968;52.342;5.528;2023-02-12T03:56:47;103844.50;;;4.75;76.00
43161;BME280;40968;52.342;5.528;2023-02-12T03:59:17;103769.31;;;4.27;75.94
43161;BME280;40968;52.342;5.528;2023-02-12T04:01:46;103668.50;;;3.67;75.85
43161;BME280;40968;52.342;5.528;2023-02-12T04:04:14;103784.38;;;4.32;76.01
43161;BME280;40968;52.342;5.528;2023-02-12T04:06:41;103813.56;;;4.51;75.98
43161;BME280;40968;52.342;5.528;2023-02-12T04:09:10;103788.78;;;4.34;76.27
43161;BME280;40968;52.342;5.528;2023-02-12T04:11:46;103776.41;;;4.28;76.49
43161;BME280;40968;52.342;5.528;2023-02-12T04:14:21;103859.59;;;4.72;76.48
43161;BME280;40968;52.342;5.528;2023-02-12T04:16:57;103856.94;;;4.72;76.95
43161;BME280;40968;52.342;5.528;2023-02-12T04:19:32;103802.06;;;4.41;77.00
43161;BME280;40968;52.342;5.528;2023-02-12T04:22:14;103861.34;;;4.73;76.73
43161;BME280;40968;52.342;5.528;2023-02-12T04:24:51;103732.19;;;3.94;76.94
43161;BME280;40968;52.342;5.528;2023-02-12T04:27:28;103680.88;;;3.68;77.08
43161;BME280;40968;52.342;5.528;2023-02-12T04:30:05;103827.72;;;4.53;77.57
43161;BME280;40968;52.342;5.528;2023-02-12T04:32:37;103825.97;;;4.43;77.39
43161;BME280;40968;52.342;5.528;2023-02-12T04:35:13;103868.44;;;4.77;77.49
43161;BME280;40968;52.342;5.528;2023-02-12T04:37:43;103878.16;;;4.78;77.35
43161;BME280;40968;52.342;5.528;2023-02-12T04:40:13;103857.81;;;4.63;77.11
43161;BME280;40968;52.342;5.528;2023-02-12T04:42:41;103882.59;;;4.77;77.56
43161;BME280;40968;52.342;5.528;2023-02-12T04:45:09;103887.94;;;4.77;77.86
43161;BME280;40968;52.342;5.528;2023-02-12T04:47:38;103887.91;;;4.79;78.51
43161;BME280;40968;52.342;5.528;2023-02-12T04:50:05;103841.88;;;4.58;78.27
43161;BME280;40968;52.342;5.528;2023-02-12T04:52:32;103795.00;;;4.31;78.42
43161;BME280;40968;52.342;5.528;2023-02-12T04:54:59;103879.06;;;4.86;78.66
43161;BME280;40968;52.342;5.528;2023-02-12T04:57:26;103880.81;;;4.90;78.81
43161;BME280;40968;52.342;5.528;2023-02-12T04:59:52;103877.28;;;4.91;78.64
43161;BME280;40968;52.342;5.528;2023-02-12T05:02:19;103876.41;;;4.94;78.73
43161;BME280;40968;52.342;5.528;2023-02-12T05:04:47;103857.78;;;4.83;78.69
43161;BME280;40968;52.342;5.528;2023-02-12T05:07:14;103858.69;;;4.84;78.90
43161;BME280;40968;52.342;5.528;2023-02-12T05:09:41;103881.69;;;4.98;78.75
43161;BME280;40968;52.342;5.528;2023-02-12T05:12:08;103871.09;;;4.88;78.70
43161;BME280;40968;52.342;5.528;2023-02-12T05:14:34;103892.31;;;5.00;78.72
43161;BME280;40968;52.342;5.528;2023-02-12T05:17:01;103815.31;;;4.58;78.84
43161;BME280;40968;52.342;5.528;2023-02-12T05:19:28;103764.91;;;4.30;79.05
43161;BME280;40968;52.342;5.528;2023-02-12T05:21:55;103736.59;;;4.15;79.26
43161;BME280;40968;52.342;5.528;2023-02-12T05:24:22;103858.69;;;4.85;79.32
43161;BME280;40968;52.342;5.528;2023-02-12T05:26:49;103889.63;;;5.08;79.57
43161;BME280;40968;52.342;5.528;2023-02-12T05:29:16;103784.34;;;4.50;79.69
43161;BME280;40968;52.342;5.528;2023-02-12T05:31:43;103798.53;;;4.55;79.70
43161;BME280;40968;52.342;5.528;2023-02-12T05:34:10;103860.44;;;4.94;79.70
43161;BME280;40968;52.342;5.528;2023-02-12T05:36:38;103890.50;;;5.13;79.65
43161;BME280;40968;52.342;5.528;2023-02-12T05:39:06;103857.75;;;4.92;79.92
43161;BME280;40968;52.342;5.528;2023-02-12T05:41:33;103765.75;;;4.39;79.93
43161;BME280;40968;52.342;5.528;2023-02-12T05:44:00;103894.06;;;5.17;80.16
43161;BME280;40968;52.342;5.528;2023-02-12T05:46:27;103774.63;;;4.47;80.08
43161;BME280;40968;52.342;5.528;2023-02-12T05:48:53;103827.69;;;4.78;80.20
43161;BME280;40968;52.342;5.528;2023-02-12T05:51:24;103862.19;;;4.98;80.17
43161;BME280;40968;52.342;5.528;2023-02-12T05:53:52;103902.03;;;5.18;80.11
43161;BME280;40968;52.342;5.528;2023-02-12T05:56:22;103900.25;;;5.20;80.25
43161;BME280;40968;52.342;5.528;2023-02-12T05:58:52;103788.75;;;4.49;80.23
43161;BME280;40968;52.342;5.528;2023-02-12T06:01:21;103893.16;;;5.21;80.36
43161;BME280;40968;52.342;5.528;2023-02-12T06:03:48;103896.69;;;5.21;80.73
43161;BME280;40968;52.342;5.528;2023-02-12T06:06:14;103864.84;;;5.03;80.44
43161;BME280;40968;52.342;5.528;2023-02-12T06:08:41;103895.81;;;5.22;80.64
43161;BME280;40968;52.342;5.528;2023-02-12T06:11:11;103905.56;;;5.23;80.69
43161;BME280;40968;52.342;5.528;2023-02-12T06:13:39;103900.25;;;5.23;80.81
43161;BME280;40968;52.342;5.528;2023-02-12T06:16:06;103862.19;;;5.00;80.79
43161;BME280;40968;52.342;5.528;2023-02-12T06:18:41;103831.19;;;4.92;80.79
43161;BME280;40968;52.342;5.528;2023-02-12T06:21:07;103855.97;;;5.07;80.71
43161;BME280;40968;52.342;5.528;2023-02-12T06:23:34;103844.47;;;4.97;80.67
43161;BME280;40968;52.342;5.528;2023-02-12T06:26:01;103891.34;;;5.29;80.79
43161;BME280;40968;52.342;5.528;2023-02-12T06:28:27;103754.25;;;4.46;80.76
43161;BME280;40968;52.342;5.528;2023-02-12T06:30:55;103897.56;;;5.31;80.90
43161;BME280;40968;52.342;5.528;2023-02-12T06:33:22;103864.81;;;5.12;81.17
43161;BME280;40968;52.342;5.528;2023-02-12T06:35:48;103851.53;;;5.03;81.14
43161;BME280;40968;52.342;5.528;2023-02-12T06:38:15;103838.25;;;5.03;81.04
43161;BME280;40968;52.342;5.528;2023-02-12T06:40:42;103895.75;;;5.39;81.18
43161;BME280;40968;52.342;5.528;2023-02-12T06:43:09;103896.66;;;5.40;81.21
43161;BME280;40968;52.342;5.528;2023-02-12T06:45:36;103868.34;;;5.20;81.13
43161;BME280;40968;52.342;5.528;2023-02-12T06:48:04;103851.50;;;5.12;81.21
43161;BME280;40968;52.342;5.528;2023-02-12T06:50:32;103845.34;;;5.10;81.22
43161;BME280;40968;52.342;5.528;2023-02-12T06:52:58;103691.44;;;4.22;81.24
43161;BME280;40968;52.342;5.528;2023-02-12T06:55:26;103815.25;;;4.92;81.33
43161;BME280;40968;52.342;5.528;2023-02-12T06:57:53;103905.47;;;5.45;81.52
43161;BME280;40968;52.342;5.528;2023-02-12T07:00:21;103909.06;;;5.44;81.43
43161;BME280;40968;52.342;5.528;2023-02-12T07:02:51;103802.88;;;4.79;81.41
43161;BME280;40968;52.342;5.528;2023-02-12T07:05:20;103746.31;;;4.43;81.46
43161;BME280;40968;52.342;5.528;2023-02-12T07:07:47;103917.91;;;5.43;81.57
43161;BME280;40968;52.342;5.528;2023-02-12T07:10:14;103767.53;;;4.52;81.47
43161;BME280;40968;52.342;5.528;2023-02-12T07:12:41;103906.41;;;5.35;81.55
43161;BME280;40968;52.342;5.528;2023-02-12T07:15:08;103855.97;;;5.07;81.72
43161;BME280;40968;52.342;5.528;2023-02-12T07:17:35;103885.16;;;5.24;81.66
43161;BME280;40968;52.342;5.528;2023-02-12T07:20:02;103894.00;;;5.29;81.87
43161;BME280;40968;52.342;5.528;2023-02-12T07:22:30;103924.09;;;5.45;81.71
43161;BME280;40968;52.342;5.528;2023-02-12T07:25:00;103936.50;;;5.46;81.81
43161;BME280;40968;52.342;5.528;2023-02-12T07:27:27;103928.53;;;5.46;81.76
43161;BME280;40968;52.342;5.528;2023-02-12T07:29:53;103935.63;;;5.47;81.76
43161;BME280;40968;52.342;5.528;2023-02-12T07:32:20;103910.81;;;5.36;81.95
43161;BME280;40968;52.342;5.528;2023-02-12T07:34:46;103913.50;;;5.31;81.93
43161;BME280;40968;52.342;5.528;2023-02-12T07:37:13;103945.34;;;5.53;81.83
43161;BME280;40968;52.342;5.528;2023-02-12T07:39:42;103921.50;;;5.32;82.00
43161;BME280;40968;52.342;5.528;2023-02-12T07:42:09;103869.25;;;5.07;81.95
43161;BME280;40968;52.342;5.528;2023-02-12T07:44:39;103954.22;;;5.55;82.20
43161;BME280;40968;52.342;5.528;2023-02-12T07:47:05;103957.75;;;5.55;82.19
43161;BME280;40968;52.342;5.528;2023-02-12T07:49:32;103932.97;;;5.41;82.11
43161;BME280;40968;52.342;5.528;2023-02-12T07:51:59;103956.88;;;5.59;82.16
43161;BME280;40968;52.342;5.528;2023-02-12T07:54:26;103901.13;;;5.24;82.17
43161;BME280;40968;52.342;5.528;2023-02-12T07:56:54;103822.38;;;4.81;82.13
43161;BME280;40968;52.342;5.528;2023-02-12T07:59:20;103751.63;;;4.43;82.20
43161;BME280;40968;52.342;5.528;2023-02-12T08:01:49;103898.47;;;5.25;82.19
43161;BME280;40968;52.342;5.528;2023-02-12T08:04:17;103976.38;;;5.68;82.36
43161;BME280;40968;52.342;5.528;2023-02-12T08:06:46;103946.25;;;5.48;82.41
43161;BME280;40968;52.342;5.528;2023-02-12T08:09:15;103940.06;;;5.54;82.41
43161;BME280;40968;52.342;5.528;2023-02-12T08:11:42;103892.28;;;5.22;82.21
43161;BME280;40968;52.342;5.528;2023-02-12T08:14:12;103983.41;;;5.75;82.42
43161;BME280;40968;52.342;5.528;2023-02-12T08:16:40;103942.72;;;5.54;82.41
43161;BME280;40968;52.342;5.528;2023-02-12T08:19:07;103925.00;;;5.41;82.52
43161;BME280;40968;52.342;5.528;2023-02-12T08:21:34;103885.16;;;5.24;82.43
43161;BME280;40968;52.342;5.528;2023-02-12T08:24:01;103985.19;;;5.82;82.69
43161;BME280;40968;52.342;5.528;2023-02-12T08:26:31;103988.72;;;5.84;82.68
43161;BME280;40968;52.342;5.528;2023-02-12T08:28:59;103950.66;;;5.63;82.58
43161;BME280;40968;52.342;5.528;2023-02-12T08:31:29;103917.88;;;5.46;82.64
43161;BME280;40968;52.342;5.528;2023-02-12T08:33:56;103768.38;;;4.63;82.53
43161;BME280;40968;52.342;5.528;2023-02-12T08:36:24;103859.50;;;5.12;82.67
43161;BME280;40968;52.342;5.528;2023-02-12T08:38:52;103997.53;;;5.95;82.77
43161;BME280;40968;52.342;5.528;2023-02-12T08:41:20;103963.94;;;5.71;82.83
43161;BME280;40968;52.342;5.528;2023-02-12T08:43:48;104004.66;;;6.00;82.94
43161;BME280;40968;52.342;5.528;2023-02-12T08:46:17;104013.53;;;6.02;82.90
43161;BME280;40968;52.342;5.528;2023-02-12T08:48:51;103892.22;;;5.36;82.97
43161;BME280;40968;52.342;5.528;2023-02-12T08:51:21;103947.97;;;5.68;82.77
43161;BME280;40968;52.342;5.528;2023-02-12T08:53:51;104011.72;;;6.10;83.11
43161;BME280;40968;52.342;5.528;2023-02-12T08:56:18;104012.59;;;6.13;83.08
43161;BME280;40968;52.342;5.528;2023-02-12T08:58:46;104011.69;;;6.16;83.03
43161;BME280;40968;52.342;5.528;2023-02-12T09:01:14;103972.72;;;5.95;83.00
43161;BME280;40968;52.342;5.528;2023-02-12T09:03:42;103911.66;;;5.56;83.12
43161;BME280;40968;52.342;5.528;2023-02-12T09:06:10;104013.41;;;6.26;83.00
43161;BME280;40968;52.342;5.528;2023-02-12T09:08:37;104001.03;;;6.22;83.01
43161;BME280;40968;52.342;5.528;2023-02-12T09:11:05;104012.47;;;6.34;82.85
43161;BME280;40968;52.342;5.528;2023-02-12T09:13:33;104024.03;;;6.36;82.81
43161;BME280;40968;52.342;5.528;2023-02-12T09:16:00;104014.25;;;6.39;82.86
43161;BME280;40968;52.342;5.528;2023-02-12T09:18:27;103962.00;;;6.09;82.73
43161;BME280;40968;52.342;5.528;2023-02-12T09:20:59;103942.53;;;5.97;82.93
43161;BME280;40968;52.342;5.528;2023-02-12T09:23:27;103968.22;;;6.12;82.83
43161;BME280;40968;52.342;5.528;2023-02-12T09:25:54;104020.41;;;6.43;82.84
43161;BME280;40968;52.342;5.528;2023-02-12T09:28:20;103946.06;;;6.00;82.74
43161;BME280;40968;52.342;5.528;2023-02-12T09:30:47;104028.41;;;6.47;82.52
43161;BME280;40968;52.342;5.528;2023-02-12T09:33:14;103980.63;;;6.20;82.64
43161;BME280;40968;52.342;5.528;2023-02-12T09:35:40;104032.78;;;6.55;82.67
43161;BME280;40968;52.342;5.528;2023-02-12T09:38:07;103987.59;;;6.36;82.47
43161;BME280;40968;52.342;5.528;2023-02-12T09:40:43;103998.22;;;6.42;82.52
43161;BME280;40968;52.342;5.528;2023-02-12T09:43:16;104023.81;;;6.68;82.69
43161;BME280;40968;52.342;5.528;2023-02-12T09:45:50;104025.59;;;6.71;82.49
43161;BME280;40968;52.342;5.528;2023-02-12T09:48:41;104022.88;;;6.74;82.36
43161;BME280;40968;52.342;5.528;2023-02-12T09:51:13;104017.53;;;6.75;82.29
43161;BME280;40968;52.342;5.528;2023-02-12T09:53:42;104019.28;;;6.79;82.28
43161;BME280;40968;52.342;5.528;2023-02-12T09:56:15;103965.31;;;6.51;82.10
43161;BME280;40968;52.342;5.528;2023-02-12T09:58:45;104010.41;;;6.76;82.21
43161;BME280;40968;52.342;5.528;2023-02-12T10:01:14;104023.72;;;6.85;81.73
43161;BME280;40968;52.342;5.528;2023-02-12T10:03:42;104021.00;;;6.88;81.86
43161;BME280;40968;52.342;5.528;2023-02-12T10:06:13;104016.53;;;6.89;81.70
43161;BME280;40968;52.342;5.528;2023-02-12T10:08:50;104009.50;;;6.83;81.68
43161;BME280;40968;52.342;5.528;2023-02-12T10:14:25;103950.19;;;6.52;81.58
43161;BME280;40968;52.342;5.528;2023-02-12T10:17:00;103853.78;;;5.98;81.18
43161;BME280;40968;52.342;5.528;2023-02-12T10:19:40;104022.69;;;7.00;81.18
43161;BME280;40968;52.342;5.528;2023-02-12T10:22:17;103966.94;;;6.71;80.99
43161;BME280;40968;52.342;5.528;2023-02-12T10:24:59;103986.38;;;6.82;81.08
43161;BME280;40968;52.342;5.528;2023-02-12T10:27:37;103960.75;;;6.64;80.93
43161;BME280;40968;52.342;5.528;2023-02-12T10:30:13;103825.41;;;5.91;80.78
43161;BME280;40968;52.342;5.528;2023-02-12T10:32:45;103996.13;;;6.88;80.57
43161;BME280;40968;52.342;5.528;2023-02-12T10:35:13;104028.81;;;7.10;80.59
43161;BME280;40968;52.342;5.528;2023-02-12T10:37:43;104033.22;;;7.12;80.75
43161;BME280;40968;52.342;5.528;2023-02-12T10:40:17;104026.13;;;7.14;80.54
43161;BME280;40968;52.342;5.528;2023-02-12T10:42:49;104037.66;;;7.15;80.37
43161;BME280;40968;52.342;5.528;2023-02-12T10:45:19;104032.31;;;7.15;80.14
43161;BME280;40968;52.342;5.528;2023-02-12T10:47:48;103972.22;;;6.77;79.84
43161;BME280;40968;52.342;5.528;2023-02-12T10:50:23;103976.63;;;6.83;79.79
43161;BME280;40968;52.342;5.528;2023-02-12T10:52:55;103892.59;;;6.37;79.85
43161;BME280;40968;52.342;5.528;2023-02-12T10:55:26;104035.84;;;7.20;79.85
43161;BME280;40968;52.342;5.528;2023-02-12T10:57:55;103836.84;;;6.09;79.38
43161;BME280;40968;52.342;5.528;2023-02-12T11:00:26;103924.34;;;6.63;79.28
43161;BME280;40968;52.342;5.528;2023-02-12T11:03:18;103958.88;;;6.80;79.22
43161;BME280;40968;52.342;5.528;2023-02-12T11:05:46;104025.13;;;7.26;79.09
43161;BME280;40968;52.342;5.528;2023-02-12T11:08:32;104028.66;;;7.28;78.90
43161;BME280;40968;52.342;5.528;2023-02-12T11:11:05;104001.25;;;7.14;78.85
43161;BME280;40968;52.342;5.528;2023-02-12T11:13:34;103988.81;;;7.10;78.79
43161;BME280;40968;52.342;5.528;2023-02-12T11:16:01;104031.28;;;7.33;78.61
43161;BME280;40968;52.342;5.528;2023-02-12T11:18:29;103985.25;;;7.11;78.83
43161;BME280;40968;52.342;5.528;2023-02-12T11:20:59;104025.00;;;7.37;78.51
43161;BME280;40968;52.342;5.528;2023-02-12T11:23:28;104009.09;;;7.28;77.97
43161;BME280;40968;52.342;5.528;2023-02-12T11:25:59;104001.94;;;7.32;78.20
43161;BME280;40968;52.342;5.528;2023-02-12T11:28:26;103965.69;;;7.12;78.26
43161;BME280;40968;52.342;5.528;2023-02-12T11:30:57;104019.59;;;7.45;78.12
43161;BME280;40968;52.342;5.528;2023-02-12T11:33:27;104017.81;;;7.47;77.84
43161;BME280;40968;52.342;5.528;2023-02-12T11:35:56;103999.25;;;7.35;77.77
43161;BME280;40968;52.342;5.528;2023-02-12T11:38:26;103956.72;;;7.21;77.74
43161;BME280;40968;52.342;5.528;2023-02-12T11:40:58;103957.63;;;7.18;77.65
43161;BME280;40968;52.342;5.528;2023-02-12T11:43:26;103967.25;;;7.32;77.66
43161;BME280;40968;52.342;5.528;2023-02-12T11:45:57;103936.28;;;7.15;77.47
43161;BME280;40968;52.342;5.528;2023-02-12T11:48:28;104001.69;;;7.56;77.40
43161;BME280;40968;52.342;5.528;2023-02-12T11:50:56;104002.53;;;7.58;77.30
43161;BME280;40968;52.342;5.528;2023-02-12T11:53:24;103892.94;;;6.97;77.37
43161;BME280;40968;52.342;5.528;2023-02-12T11:55:56;103940.66;;;7.24;77.46
43161;BME280;40968;52.342;5.528;2023-02-12T11:58:25;103983.03;;;7.52;77.46
43161;BME280;40968;52.342;5.528;2023-02-12T12:01:07;103967.94;;;7.49;77.36
43161;BME280;40968;52.342;5.528;2023-02-12T12:03:42;103942.34;;;7.33;77.29
43161;BME280;40968;52.342;5.528;2023-02-12T12:06:28;103995.31;;;7.68;77.00
43161;BME280;40968;52.342;5.528;2023-02-12T12:09:03;103936.94;;;7.37;76.75
43161;BME280;40968;52.342;5.528;2023-02-12T12:11:37;103993.50;;;7.72;76.84
43161;BME280;40968;52.342;5.528;2023-02-12T12:14:13;103990.78;;;7.75;76.80
43161;BME280;40968;52.342;5.528;2023-02-12T12:16:48;103973.13;;;7.64;76.37
43161;BME280;40968;52.342;5.528;2023-02-12T12:19:37;103962.50;;;7.61;76.28
43161;BME280;40968;52.342;5.528;2023-02-12T12:22:41;103852.00;;;7.02;76.19
43161;BME280;40968;52.342;5.528;2023-02-12T12:25:15;103979.16;;;7.79;76.39
43161;BME280;40968;52.342;5.528;2023-02-12T12:27:54;103909.31;;;7.41;76.10
43161;BME280;40968;52.342;5.528;2023-02-12T12:30:43;103977.41;;;7.79;75.81
43161;BME280;40968;52.342;5.528;2023-02-12T12:33:18;103955.31;;;7.67;75.86
43161;BME280;40968;52.342;5.528;2023-02-12T12:35:58;103956.13;;;7.70;75.66
43161;BME280;40968;52.342;5.528;2023-02-12T12:38:36;103967.56;;;7.82;75.58
43161;BME280;40968;52.342;5.528;2023-02-12T12:41:10;103861.50;;;7.24;75.19
43161;BME280;40968;52.342;5.528;2023-02-12T12:43:50;103935.75;;;7.64;75.20
43161;BME280;40968;52.342;5.528;2023-02-12T12:46:33;103962.13;;;7.89;75.60
43161;BME280;40968;52.342;5.528;2023-02-12T12:49:22;103882.66;;;7.40;75.09
43161;BME280;40968;52.342;5.528;2023-02-12T12:52:06;103866.75;;;7.34;74.74
43161;BME280;40968;52.342;5.528;2023-02-12T12:54:49;103909.13;;;7.58;74.09
43161;BME280;40968;52.342;5.528;2023-02-12T12:57:29;103910.88;;;7.62;73.93
43161;BME280;40968;52.342;5.528;2023-02-12T13:00:09;103962.06;;;7.92;73.24
43161;BME280;40968;52.342;5.528;2023-02-12T13:03:11;103959.38;;;7.95;73.02
43161;BME280;40968;52.342;5.528;2023-02-12T13:08:58;103950.47;;;7.96;71.96
43161;BME280;40968;52.342;5.528;2023-02-12T13:11:34;103901.91;;;7.67;71.47
43161;BME280;40968;52.342;5.528;2023-02-12T13:14:12;103911.56;;;7.75;71.12
43161;BME280;40968;52.342;5.528;2023-02-12T13:16:45;103862.97;;;7.50;71.08
43161;BME280;40968;52.342;5.528;2023-02-12T13:19:18;103908.91;;;7.77;70.90
43161;BME280;40968;52.342;5.528;2023-02-12T13:21:54;103945.94;;;8.00;71.13
43161;BME280;40968;52.342;5.528;2023-02-12T13:24:29;103880.56;;;7.67;71.01
43161;BME280;40968;52.342;5.528;2023-02-12T13:27:04;103940.56;;;8.05;70.72
43161;BME280;40968;52.342;5.528;2023-02-12T13:29:35;103876.00;;;7.73;70.68